Time;durP1;ratioP1;P1;durP2;ratioP2;P2;SDS_P1;SDS_P2;PMS_P1;PMS_P2;Temp;Humidity;BMP_temperature;BMP_pressure;BME280_temperature;BME280_humidity;BME280_pressure;Samples;Min_cycle;Max_cycle;Signal;HPM_P1;HPM_P2
2021/12/03 00:02:25;;;;;;;6.43;3.72;;;;;;;-0.27;100.00;101102.59;5023439;28;20057;-74
2021/12/03 00:04:53;;;;;;;6.35;3.80;;;;;;;-0.22;100.00;101098.28;5024720;28;20053;-77
2021/12/03 00:07:22;;;;;;;12.73;4.25;;;;;;;-0.20;100.00;101099.19;5020991;28;20046;-74
2021/12/03 00:09:50;;;;;;;7.78;4.38;;;;;;;-0.21;100.00;101108.78;5024515;28;20084;-74
2021/12/03 00:12:17;;;;;;;12.85;4.35;;;;;;;-0.20;100.00;101114.94;5025230;28;20041;-76
2021/12/03 00:14:45;;;;;;;9.40;4.00;;;;;;;-0.23;100.00;101117.50;5022339;28;20059;-74
2021/12/03 00:17:14;;;;;;;11.23;4.18;;;;;;;-0.17;100.00;101120.25;5022348;28;20136;-74
2021/12/03 00:19:42;;;;;;;13.20;4.35;;;;;;;-0.18;100.00;101107.97;5023464;28;20493;-74
2021/12/03 00:22:10;;;;;;;7.65;3.70;;;;;;;-0.16;100.00;101114.13;5026784;28;20091;-74
2021/12/03 00:24:39;;;;;;;9.00;4.72;;;;;;;-0.13;100.00;101101.06;5028363;28;20053;-76
2021/12/03 00:27:08;;;;;;;8.30;3.72;;;;;;;-0.11;100.00;101112.44;5025086;28;20092;-76
2021/12/03 00:29:36;;;;;;;7.95;4.93;;;;;;;-0.10;100.00;101110.69;5030955;28;20045;-76
2021/12/03 00:32:05;;;;;;;9.05;3.88;;;;;;;-0.14;100.00;101115.00;5024180;28;20049;-76
2021/12/03 00:34:34;;;;;;;9.18;3.70;;;;;;;-0.08;100.00;101112.50;5028059;28;20052;-76
2021/12/03 00:37:02;;;;;;;10.60;3.88;;;;;;;-0.06;100.00;101113.41;5022683;28;20049;-76
2021/12/03 00:39:30;;;;;;;7.18;3.38;;;;;;;-0.06;100.00;101118.66;5029672;28;20104;-77
2021/12/03 00:42:00;;;;;;;5.30;3.13;;;;;;;0.01;100.00;101116.13;5025939;28;20497;-76
2021/12/03 00:44:29;;;;;;;5.43;3.10;;;;;;;0.04;100.00;101118.81;5033515;28;20486;-74
2021/12/03 00:46:59;;;;;;;9.25;3.53;;;;;;;0.07;100.00;101118.84;5027460;28;20176;-74
2021/12/03 00:49:27;;;;;;;7.05;3.20;;;;;;;0.01;100.00;101119.63;5027091;28;20057;-74
2021/12/03 00:51:56;;;;;;;5.43;2.92;;;;;;;0.05;100.00;101110.06;5024632;28;20481;-74
2021/12/03 00:54:25;;;;;;;7.22;3.35;;;;;;;0.07;100.00;101105.72;5028562;28;21856;-74
2021/12/03 00:56:53;;;;;;;8.43;3.35;;;;;;;0.12;100.00;101104.03;5029837;28;22059;-75
2021/12/03 00:59:21;;;;;;;4.68;2.70;;;;;;;0.05;100.00;101108.34;5026279;28;20132;-75
2021/12/03 01:01:49;;;;;;;7.13;3.03;;;;;;;0.08;100.00;101110.13;5027779;28;20377;-75
2021/12/03 01:04:18;;;;;;;4.07;2.60;;;;;;;0.10;100.00;101109.28;5024050;28;20040;-74
2021/12/03 01:06:46;;;;;;;7.88;2.58;;;;;;;0.11;100.00;101103.16;5026122;28;20153;-76
2021/12/03 01:09:16;;;;;;;11.80;3.25;;;;;;;0.15;100.00;101105.00;5025513;28;20143;-76
2021/12/03 01:11:44;;;;;;;6.07;3.03;;;;;;;0.10;100.00;101100.53;5022873;28;20064;-76
2021/12/03 01:14:12;;;;;;;6.82;3.25;;;;;;;0.06;100.00;101098.72;5032465;28;20053;-76
2021/12/03 01:16:40;;;;;;;5.78;2.80;;;;;;;0.09;100.00;101093.53;5027410;28;20067;-76
2021/12/03 01:19:11;;;;;;;4.45;2.80;;;;;;;0.15;100.00;101093.59;5023708;28;20041;-76
2021/12/03 01:21:39;;;;;;;5.75;3.15;;;;;;;0.14;100.00;101090.09;5030399;28;20046;-74
2021/12/03 01:24:08;;;;;;;7.25;2.88;;;;;;;0.11;100.00;101094.44;5026615;28;20045;-74
2021/12/03 01:26:41;;;;;;;9.93;3.08;;;;;;;0.12;100.00;101085.66;5029113;28;20049;-69
2021/12/03 01:29:10;;;;;;;5.60;3.03;;;;;;;0.15;100.00;101097.13;5029407;28;20093;-71
2021/12/03 01:31:40;;;;;;;5.55;2.72;;;;;;;0.19;100.00;101105.91;5056221;28;20084;-71
2021/12/03 01:34:08;;;;;;;7.18;2.85;;;;;;;0.25;100.00;101103.38;5028329;28;20211;-74
2021/12/03 01:36:36;;;;;;;4.60;3.08;;;;;;;0.30;100.00;101112.19;5025685;28;20055;-77
2021/12/03 01:39:06;;;;;;;7.53;3.05;;;;;;;0.35;100.00;101104.38;5026610;28;20049;-74
2021/12/03 01:41:35;;;;;;;6.75;2.60;;;;;;;0.34;100.00;101107.88;5026829;28;20055;-74
2021/12/03 01:44:04;;;;;;;6.63;3.38;;;;;;;0.35;100.00;101113.13;5023903;28;20060;-74
2021/12/03 01:46:33;;;;;;;7.43;3.20;;;;;;;0.31;100.00;101108.72;5028251;28;20053;-74
2021/12/03 01:49:01;;;;;;;9.68;3.20;;;;;;;0.26;100.00;101101.66;5026528;28;20049;-74
2021/12/03 01:51:29;;;;;;;4.68;2.67;;;;;;;0.28;100.00;101095.53;5023521;28;20052;-75
2021/12/03 01:53:58;;;;;;;5.35;2.88;;;;;;;0.33;100.00;101099.13;5025807;28;20132;-75
2021/12/03 01:56:27;;;;;;;5.93;3.10;;;;;;;0.31;100.00;101095.59;5024600;28;20057;-75
2021/12/03 01:58:55;;;;;;;7.40;2.50;;;;;;;0.35;100.00;101091.25;5028953;28;20088;-75
2021/12/03 02:01:29;;;;;;;6.15;2.65;;;;;;;0.37;100.00;101089.53;5027557;28;20124;-69
2021/12/03 02:04:01;;;;;;;5.38;2.50;;;;;;;0.35;100.00;101083.38;5026704;28;20050;-69
2021/12/03 02:06:32;;;;;;;6.97;2.95;;;;;;;0.33;100.00;101077.25;5025120;28;20052;-69
2021/12/03 02:09:02;;;;;;;7.40;2.97;;;;;;;0.32;100.00;101068.50;5024073;28;20084;-69
2021/12/03 02:11:34;;;;;;;11.68;2.92;;;;;;;0.59;100.00;101059.19;5027298;28;20077;-71
2021/12/03 02:14:08;;;;;;;6.65;3.00;;;;;;;0.67;100.00;101056.66;5024738;28;20116;-69
2021/12/03 02:16:45;;;;;;;8.25;3.10;;;;;;;0.84;100.00;101051.59;5029722;28;20111;-69
2021/12/03 02:19:17;;;;;;;6.72;3.08;;;;;;;0.80;100.00;101068.19;5024848;28;20496;-71
2021/12/03 02:21:49;;;;;;;8.30;3.50;;;;;;;0.82;100.00;101076.97;5030609;28;20128;-71
2021/12/03 02:24:21;;;;;;;6.97;2.95;;;;;;;0.81;100.00;101088.34;5023610;28;20131;-71
2021/12/03 02:26:50;;;;;;;8.95;2.63;;;;;;;0.73;100.00;101078.63;5028697;28;20112;-71
2021/12/03 02:29:23;;;;;;;8.70;3.35;;;;;;;0.84;100.00;101086.63;5021433;28;20484;-71
2021/12/03 02:32:00;;;;;;;6.50;2.92;;;;;;;0.80;100.00;101084.84;5026100;28;20077;-69
2021/12/03 02:37:17;;;;;;;10.98;2.67;;;;;;;0.77;100.00;101081.28;5027731;28;20048;-75
2021/12/03 02:39:45;;;;;;;5.25;2.50;;;;;;;0.70;100.00;101077.72;5024801;28;20053;-75
2021/12/03 02:42:13;;;;;;;7.53;2.83;;;;;;;0.74;100.00;101072.50;5027823;28;20114;-75
2021/12/03 02:44:41;;;;;;;4.53;2.50;;;;;;;0.82;100.00;101062.09;5024206;28;20049;-75
2021/12/03 02:47:09;;;;;;;7.70;2.30;;;;;;;0.83;100.00;101065.59;5023390;28;20049;-75
2021/12/03 02:49:39;;;;;;;9.75;2.35;;;;;;;0.83;100.00;101068.22;5022353;28;20474;-74
2021/12/03 02:52:07;;;;;;;8.25;2.90;;;;;;;0.86;100.00;101063.88;5027759;28;20061;-74
2021/12/03 02:54:37;;;;;;;8.38;2.55;;;;;;;0.86;100.00;101063.88;5026394;28;20068;-74
2021/12/03 02:57:06;;;;;;;10.05;2.78;;;;;;;0.89;100.00;101069.19;5022789;28;20041;-70
2021/12/03 02:59:35;;;;;;;6.15;2.30;;;;;;;0.97;100.00;101071.00;5029520;28;20061;-71
2021/12/03 03:02:04;;;;;;;8.38;2.53;;;;;;;0.95;100.00;101078.00;5023283;28;20134;-71
2021/12/03 03:04:52;;;;;;;8.20;2.70;;;;;;;1.00;100.00;101071.91;5026312;28;20136;-71
2021/12/03 03:07:23;;;;;;;5.60;2.17;;;;;;;1.11;100.00;101072.91;5023265;28;20045;-71
2021/12/03 03:09:53;;;;;;;9.27;2.20;;;;;;;1.09;100.00;101063.25;5025963;28;20145;-72
2021/12/03 03:12:21;;;;;;;6.60;2.17;;;;;;;1.13;100.00;101051.91;5025524;28;20474;-72
2021/12/03 03:14:55;;;;;;;10.00;2.63;;;;;;;1.22;100.00;101056.38;5018473;28;20045;-70
2021/12/03 03:17:25;;;;;;;10.15;2.30;;;;;;;1.27;100.00;101060.81;5026572;28;20151;-70
2021/12/03 03:19:53;;;;;;;8.73;2.22;;;;;;;1.42;100.00;101060.06;5027067;28;21455;-70
2021/12/03 03:22:23;;;;;;;3.40;1.98;;;;;;;1.42;100.00;101064.47;5025431;28;20127;-72
2021/12/03 03:24:55;;;;;;;8.10;2.70;;;;;;;1.42;100.00;101046.91;5021348;28;20053;-72
2021/12/03 03:27:23;;;;;;;3.20;1.63;;;;;;;1.42;100.00;101040.78;5029930;28;20373;-72
2021/12/03 03:29:52;;;;;;;3.38;2.20;;;;;;;1.49;100.00;101034.72;5025816;28;20086;-71
2021/12/03 03:32:20;;;;;;;8.30;1.75;;;;;;;1.58;100.00;101026.88;5023481;28;20055;-72
2021/12/03 03:34:49;;;;;;;5.35;1.75;;;;;;;1.64;100.00;101026.06;5025334;28;20052;-71
2021/12/03 03:37:18;;;;;;;8.23;1.98;;;;;;;1.80;100.00;101024.41;5023719;28;20041;-75
2021/12/03 03:39:46;;;;;;;7.65;2.00;;;;;;;1.85;100.00;101020.94;5028029;28;20389;-75
2021/12/03 03:42:16;;;;;;;9.77;2.08;;;;;;;1.90;100.00;101014.84;5016715;28;20053;-75
2021/12/03 03:44:46;;;;;;;8.15;2.00;;;;;;;1.92;100.00;101015.72;5024801;28;20494;-75
2021/12/03 03:47:15;;;;;;;9.23;2.85;;;;;;;1.98;100.00;101005.25;5023629;28;20090;-75
2021/12/03 03:49:43;;;;;;;7.28;2.30;;;;;;;2.03;100.00;101016.69;5026398;28;20085;-75
2021/12/03 03:52:11;;;;;;;9.32;2.80;;;;;;;2.05;100.00;101013.16;5023395;28;20553;-75
2021/12/03 03:54:39;;;;;;;9.32;2.58;;;;;;;2.10;100.00;101022.84;5022146;28;20076;-75
2021/12/03 03:57:07;;;;;;;7.95;2.45;;;;;;;2.20;100.00;101028.19;5025513;28;20044;-76
2021/12/03 03:59:36;;;;;;;7.40;2.47;;;;;;;2.20;100.00;101020.28;5026248;28;20052;-76
2021/12/03 04:02:04;;;;;;;8.20;2.40;;;;;;;2.17;100.00;101020.25;5024729;28;20049;-74
2021/12/03 04:04:32;;;;;;;7.25;2.47;;;;;;;2.16;100.00;101004.44;5022462;28;20080;-75
2021/12/03 04:07:00;;;;;;;4.70;2.83;;;;;;;2.13;100.00;101000.06;5024674;28;20053;-75
2021/12/03 04:09:28;;;;;;;8.50;2.65;;;;;;;2.08;100.00;100996.53;5022071;28;20060;-75
2021/12/03 04:11:57;;;;;;;7.47;2.90;;;;;;;1.99;100.00;100997.34;5029345;28;20508;-76
2021/12/03 04:14:25;;;;;;;4.32;1.92;;;;;;;2.02;100.00;100996.47;5021174;28;20053;-75
2021/12/03 04:16:54;;;;;;;4.65;2.13;;;;;;;2.10;100.00;101004.44;5025038;28;20053;-74
2021/12/03 04:19:22;;;;;;;13.90;2.80;;;;;;;2.12;100.00;101010.59;5021248;28;20053;-74
2021/12/03 04:21:50;;;;;;;7.68;2.38;;;;;;;2.05;100.00;101013.16;5025731;28;20053;-75
2021/12/03 04:24:18;;;;;;;10.25;3.28;;;;;;;2.07;100.00;101013.19;5021328;28;20053;-75
2021/12/03 04:26:46;;;;;;;6.40;3.30;;;;;;;2.14;100.00;101006.19;5026793;28;20049;-75
2021/12/03 04:29:14;;;;;;;8.90;3.20;;;;;;;2.21;100.00;101000.97;5022570;28;20136;-75
2021/12/03 04:31:42;;;;;;;7.20;2.65;;;;;;;2.17;100.00;100999.19;5023862;28;20140;-74
2021/12/03 04:34:11;;;;;;;7.85;2.53;;;;;;;2.15;100.00;101000.94;5022644;28;20140;-74
2021/12/03 04:36:41;;;;;;;9.57;2.70;;;;;;;2.17;100.00;100993.06;5024558;28;20163;-74
2021/12/03 04:39:09;;;;;;;8.63;3.03;;;;;;;2.16;100.00;100996.53;5025661;28;20057;-75
2021/12/03 04:41:37;;;;;;;8.43;2.92;;;;;;;2.12;100.00;101000.91;5024923;28;20095;-74
2021/12/03 04:44:05;;;;;;;8.13;3.42;;;;;;;2.09;100.00;100984.22;5024998;28;20048;-75
2021/12/03 04:46:33;;;;;;;12.70;3.15;;;;;;;2.14;100.00;100982.50;5021413;28;20057;-75
2021/12/03 04:49:01;;;;;;;9.52;2.88;;;;;;;2.07;100.00;100984.22;5022163;28;20075;-71
2021/12/03 04:51:31;;;;;;;3.97;2.53;;;;;;;2.10;100.00;100984.25;5026676;28;20052;-74
2021/12/03 04:53:59;;;;;;;6.90;2.90;;;;;;;2.14;100.00;100977.22;5022310;28;20059;-71
2021/12/03 04:56:27;;;;;;;7.07;2.95;;;;;;;2.15;100.00;100982.50;5026685;28;20080;-71
2021/12/03 04:58:56;;;;;;;9.35;4.72;;;;;;;2.18;100.00;100979.91;5023371;28;20057;-71
2021/12/03 05:01:27;;;;;;;13.15;3.40;;;;;;;2.21;100.00;100964.13;5024170;28;21328;-71
2021/12/03 05:03:56;;;;;;;11.77;3.50;;;;;;;2.20;100.00;100964.97;5022466;28;20052;-75
2021/12/03 05:06:31;;;;;;;9.82;3.45;;;;;;;2.23;100.00;100965.00;5028077;28;20061;-71
2021/12/03 05:09:00;;;;;;;10.52;3.97;;;;;;;2.18;100.00;100966.72;5023982;28;20045;-71
2021/12/03 05:11:28;;;;;;;8.05;3.80;;;;;;;2.22;100.00;100957.97;5029532;28;20176;-71
2021/12/03 05:13:57;;;;;;;11.43;4.97;;;;;;;2.24;100.00;100966.75;5022954;28;20130;-71
2021/12/03 05:16:25;;;;;;;16.98;4.65;;;;;;;2.30;100.00;100965.00;5028925;28;20048;-71
2021/12/03 05:18:54;;;;;;;13.25;5.00;;;;;;;2.34;100.00;100956.25;5025325;28;20045;-71
2021/12/03 05:21:22;;;;;;;12.00;5.10;;;;;;;2.34;100.00;100962.41;5028834;28;20060;-71
2021/12/03 05:23:50;;;;;;;16.67;5.90;;;;;;;2.40;100.00;100962.44;5025001;28;20117;-70
2021/12/03 05:26:19;;;;;;;15.90;4.40;;;;;;;2.41;100.00;100960.66;5029841;28;20128;-70
2021/12/03 05:28:47;;;;;;;13.00;4.15;;;;;;;2.49;100.00;100963.34;5023890;28;20278;-70
2021/12/03 05:31:15;;;;;;;7.95;3.75;;;;;;;2.50;100.00;100963.31;5030330;28;20048;-70
2021/12/03 05:33:43;;;;;;;11.73;4.22;;;;;;;2.54;100.00;100958.97;5025997;28;20136;-74
2021/12/03 05:36:11;;;;;;;13.77;4.35;;;;;;;2.56;100.00;100965.13;5032140;28;20061;-74
2021/12/03 05:38:40;;;;;;;20.30;4.65;;;;;;;2.58;100.00;100961.59;5023908;28;20470;-74
2021/12/03 05:41:29;;;;;;;11.68;3.90;;;;;;;2.56;100.00;100965.13;5028717;28;20387;-75
2021/12/03 05:43:57;;;;;;;10.38;4.10;;;;;;;2.55;100.00;100955.44;5022349;28;20053;-74
2021/12/03 05:46:25;;;;;;;13.15;4.30;;;;;;;2.61;100.00;100951.06;5029437;28;20136;-74
2021/12/03 05:48:54;;;;;;;11.52;4.20;;;;;;;2.57;100.00;100951.03;5023712;28;20046;-71
2021/12/03 05:51:25;;;;;;;10.18;4.03;;;;;;;2.56;100.00;100937.00;5026852;28;20054;-71
2021/12/03 05:53:58;;;;;;;15.10;4.53;;;;;;;2.56;100.00;100939.63;5023500;28;20057;-71
2021/12/03 05:56:26;;;;;;;11.43;4.20;;;;;;;2.63;100.00;100937.91;5028731;28;20102;-74
2021/12/03 05:58:55;;;;;;;16.42;4.40;;;;;;;2.71;100.00;100949.34;5023814;28;20149;-73
2021/12/03 06:01:23;;;;;;;11.02;3.88;;;;;;;2.78;100.00;100947.59;5027311;28;20504;-73
2021/12/03 06:03:52;;;;;;;17.83;4.75;;;;;;;2.82;100.00;100954.63;5025625;28;20067;-70
2021/12/03 06:06:21;;;;;;;14.07;3.78;;;;;;;2.83;100.00;100945.84;5029040;28;20072;-74
2021/12/03 06:08:50;;;;;;;11.45;4.65;;;;;;;2.85;100.00;100941.44;5027687;28;20327;-74
2021/12/03 06:11:18;;;;;;;14.02;4.13;;;;;;;2.89;100.00;100947.59;5025025;28;20049;-74
2021/12/03 06:13:46;;;;;;;14.60;4.50;;;;;;;2.89;100.00;100951.09;5021013;28;20053;-70
2021/12/03 06:16:15;;;;;;;16.02;3.92;;;;;;;2.84;100.00;100937.03;5028890;28;20060;-70
2021/12/03 06:18:43;;;;;;;9.70;3.38;;;;;;;2.85;100.00;100952.00;5027690;28;20057;-70
2021/12/03 06:21:14;;;;;;;11.32;4.00;;;;;;;2.86;100.00;100952.88;5023928;28;20073;-71
2021/12/03 06:23:43;;;;;;;9.68;3.72;;;;;;;2.85;100.00;100959.91;5026707;28;20711;-70
2021/12/03 06:26:12;;;;;;;9.20;3.75;;;;;;;2.85;100.00;100951.13;5025880;28;20049;-71
2021/12/03 06:28:41;;;;;;;7.82;3.50;;;;;;;2.85;100.00;100946.72;5028897;28;21042;-71
2021/12/03 06:31:09;;;;;;;15.82;3.83;;;;;;;2.79;100.00;100947.59;5022572;28;20077;-70
2021/12/03 06:33:39;;;;;;;10.95;4.10;;;;;;;2.73;100.00;100949.34;5028907;28;20509;-71
2021/12/03 06:36:07;;;;;;;12.23;4.70;;;;;;;2.74;100.00;100951.09;5021550;28;20425;-72
2021/12/03 06:38:38;;;;;;;14.43;4.85;;;;;;;2.71;100.00;100944.06;5026303;28;20049;-71
2021/12/03 06:41:07;;;;;;;12.32;3.90;;;;;;;2.76;100.00;100944.97;5024386;28;20107;-74
2021/12/03 06:43:35;;;;;;;16.70;5.07;;;;;;;2.68;100.00;100949.31;5029476;28;20492;-74
2021/12/03 06:46:03;;;;;;;11.05;4.88;;;;;;;2.65;100.00;100944.03;5027095;28;20135;-74
2021/12/03 06:48:32;;;;;;;10.32;3.95;;;;;;;2.64;100.00;100933.50;5023773;28;20046;-71
2021/12/03 06:51:02;;;;;;;14.68;4.82;;;;;;;2.64;100.00;100933.50;5025795;28;20152;-70
2021/12/03 06:53:39;;;;;;;12.70;4.10;;;;;;;2.57;100.00;100924.69;5028385;28;20049;-70
2021/12/03 06:56:11;;;;;;;20.38;4.22;;;;;;;2.53;100.00;100920.31;5022438;28;20057;-71
2021/12/03 06:58:39;;;;;;;12.02;4.38;;;;;;;2.50;100.00;100918.53;5026119;28;20050;-71
2021/12/03 07:01:07;;;;;;;15.55;4.55;;;;;;;2.50;100.00;100923.81;5023250;28;20065;-71
2021/12/03 07:03:38;;;;;;;14.70;4.70;;;;;;;2.44;100.00;100918.53;5026694;28;20211;-70
2021/12/03 07:06:08;;;;;;;20.67;6.32;;;;;;;2.40;100.00;100920.28;5027872;28;20595;-68
2021/12/03 07:08:36;;;;;;;17.38;5.15;;;;;;;2.38;100.00;100929.94;5024325;28;20382;-71
2021/12/03 07:11:04;;;;;;;12.63;5.32;;;;;;;2.36;100.00;100946.59;5010645;28;20072;-71
2021/12/03 07:13:32;;;;;;;13.05;5.63;;;;;;;2.32;100.00;100939.59;5023121;28;20040;-71
2021/12/03 07:16:04;;;;;;;14.23;4.75;;;;;;;2.33;100.00;100944.81;5025572;28;20493;-74
2021/12/03 07:18:32;;;;;;;12.45;5.10;;;;;;;2.31;100.00;100933.41;5022847;28;20116;-74
2021/12/03 07:21:00;;;;;;;16.15;5.25;;;;;;;2.31;100.00;100941.31;5025119;28;20548;-74
2021/12/03 07:23:29;;;;;;;23.02;6.55;;;;;;;2.27;100.00;100936.06;5019592;28;20142;-71
2021/12/03 07:26:00;;;;;;;16.30;5.03;;;;;;;2.31;100.00;100938.69;5026337;28;20053;-71
2021/12/03 07:28:30;;;;;;;16.25;4.70;;;;;;;2.29;100.00;100914.09;5025509;28;20047;-71
2021/12/03 07:30:59;;;;;;;9.88;5.00;;;;;;;2.26;100.00;100923.75;5025935;28;20059;-71
2021/12/03 07:33:29;;;;;;;13.55;4.50;;;;;;;2.25;100.00;100920.25;5027777;28;21249;-70
2021/12/03 07:35:59;;;;;;;18.42;5.45;;;;;;;2.27;100.00;100907.09;5021840;28;20055;-70
2021/12/03 07:38:29;;;;;;;10.80;4.75;;;;;;;2.21;100.00;100913.19;5025847;28;20057;-70
2021/12/03 07:40:58;;;;;;;17.85;6.05;;;;;;;2.15;100.00;100921.09;5024145;28;20494;-74
2021/12/03 07:43:26;;;;;;;14.52;5.13;;;;;;;2.20;100.00;100925.50;5026006;28;20048;-70
2021/12/03 07:45:55;;;;;;;15.20;4.75;;;;;;;2.10;100.00;100918.44;5027724;28;20044;-70
2021/12/03 07:48:23;;;;;;;16.70;5.38;;;;;;;2.08;100.00;100908.75;5024341;28;20476;-70
2021/12/03 07:50:53;;;;;;;16.75;6.60;;;;;;;2.08;100.00;100914.00;5020326;28;20493;-70
2021/12/03 07:53:22;;;;;;;12.95;4.75;;;;;;;2.10;100.00;100905.25;5023542;28;20094;-70
2021/12/03 07:55:56;;;;;;;9.20;4.78;;;;;;;2.13;100.00;100907.91;5023890;28;20055;-70
2021/12/03 07:58:24;;;;;;;13.38;5.20;;;;;;;2.18;100.00;100916.72;5014667;28;20364;-70
2021/12/03 08:01:00;;;;;;;14.10;5.60;;;;;;;2.14;100.00;100917.56;5004212;28;22780;-70
2021/12/03 08:03:30;;;;;;;13.57;5.03;;;;;;;2.20;100.00;100900.91;5020725;28;20053;-70
2021/12/03 08:06:08;;;;;;;12.98;5.32;;;;;;;2.26;100.00;100900.06;5019867;28;20053;-70
2021/12/03 08:08:39;;;;;;;15.35;6.10;;;;;;;2.24;100.00;100895.66;5026965;28;20390;-70
2021/12/03 08:11:09;;;;;;;15.00;6.18;;;;;;;2.23;100.00;100893.91;5020827;28;20056;-70
2021/12/03 08:13:39;;;;;;;12.93;5.03;;;;;;;2.30;100.00;100888.63;5023935;28;20498;-70
2021/12/03 08:16:07;;;;;;;13.73;6.22;;;;;;;2.28;100.00;100885.13;5017631;28;20168;-70
2021/12/03 08:18:38;;;;;;;15.55;6.47;;;;;;;2.26;100.00;100887.75;5027642;28;20053;-70
2021/12/03 08:21:06;;;;;;;11.07;5.00;;;;;;;2.29;100.00;100890.41;5019270;28;20053;-69
2021/12/03 08:23:35;;;;;;;12.55;5.90;;;;;;;2.32;100.00;100889.53;5023005;28;20045;-70
2021/12/03 08:26:06;;;;;;;12.80;6.90;;;;;;;2.30;100.00;100879.00;5022349;28;20049;-70
2021/12/03 08:28:39;;;;;;;9.63;5.00;;;;;;;2.29;100.00;100873.72;5023305;28;20073;-70
2021/12/03 08:31:11;;;;;;;11.32;4.80;;;;;;;2.33;100.00;100878.13;5022918;28;20425;-69
2021/12/03 08:33:39;;;;;;;16.65;4.10;;;;;;;2.33;100.00;100865.81;5023773;28;20079;-70
2021/12/03 08:36:10;;;;;;;10.88;3.78;;;;;;;2.36;100.00;100857.94;5007064;28;20179;-70
2021/12/03 08:38:39;;;;;;;12.60;3.38;;;;;;;2.39;100.00;100852.69;5021450;28;20345;-70
2021/12/03 08:41:15;;;;;;;10.23;4.13;;;;;;;2.41;100.00;100850.06;5021899;28;20045;-70
2021/12/03 08:43:47;;;;;;;12.48;4.05;;;;;;;2.41;100.00;100852.69;5027749;28;20494;-69
2021/12/03 08:46:23;;;;;;;14.20;4.15;;;;;;;2.47;100.00;100852.72;5026045;28;21314;-70
2021/12/03 08:48:52;;;;;;;13.25;4.22;;;;;;;2.53;100.00;100850.06;5062173;28;20576;-71
2021/12/03 08:56:51;;;;;;;12.60;4.30;;;;;;;2.57;100.00;100849.19;5024970;28;20056;-71
2021/12/03 08:59:29;;;;;;;7.78;3.30;;;;;;;2.59;100.00;100836.91;5027797;28;20155;-71
2021/12/03 09:01:59;;;;;;;5.15;3.05;;;;;;;2.66;100.00;100835.16;5026766;28;20131;-71
2021/12/03 09:04:37;;;;;;;9.73;3.42;;;;;;;2.63;100.00;100834.28;5030098;28;20131;-71
2021/12/03 09:07:09;;;;;;;8.18;3.33;;;;;;;2.69;100.00;100826.34;5024786;28;20065;-70
2021/12/03 09:09:44;;;;;;;10.30;3.80;;;;;;;2.67;100.00;100823.72;5031510;28;20037;-70
2021/12/03 09:12:16;;;;;;;9.82;3.28;;;;;;;2.67;100.00;100818.44;5023083;28;20055;-71
2021/12/03 09:14:50;;;;;;;12.75;3.75;;;;;;;2.61;100.00;100815.81;5030250;28;20579;-70
2021/12/03 09:20:19;;;;;;;8.85;3.97;;;;;;;2.64;100.00;100810.56;5028729;28;20065;-70
2021/12/03 09:22:58;;;;;;;13.32;4.40;;;;;;;2.65;100.00;100800.91;5024267;28;20064;-71
2021/12/03 09:25:33;;;;;;;9.35;3.75;;;;;;;2.69;100.00;100805.28;5028219;28;20141;-70
2021/12/03 09:28:12;;;;;;;11.38;3.50;;;;;;;2.67;100.00;100807.03;5025635;28;20220;-71
2021/12/03 09:30:43;;;;;;;12.95;4.40;;;;;;;2.63;100.00;100797.38;5023501;28;20172;-70
2021/12/03 09:33:15;;;;;;;11.27;3.35;;;;;;;2.61;100.00;100795.63;5028211;28;20141;-71
2021/12/03 09:36:01;;;;;;;12.98;4.60;;;;;;;2.57;100.00;100801.78;5021546;28;20059;-71
2021/12/03 09:38:40;;;;;;;13.27;4.70;;;;;;;2.53;100.00;100801.78;5025803;28;20092;-69
2021/12/03 09:41:16;;;;;;;13.70;4.65;;;;;;;2.45;100.00;100790.34;5024654;28;20506;-69
2021/12/03 09:43:49;;;;;;;17.63;5.22;;;;;;;2.43;100.00;100796.50;5018937;28;20221;-69
2021/12/03 09:46:25;;;;;;;;;;;;;;;2.39;100.00;100792.09;5024664;28;20710;-69
2021/12/03 09:51:55;;;;;;;16.30;5.53;;;;;;;2.25;100.00;100785.97;5048960;28;21317;-68
2021/12/03 09:54:32;;;;;;;24.83;6.53;;;;;;;2.29;100.00;100781.56;5029638;28;20465;-70
2021/12/03 09:57:05;;;;;;;16.20;5.32;;;;;;;2.18;100.00;100779.81;5035919;28;20057;-72
2021/12/03 10:20:41;;;;;;;14.63;6.72;;;;;;;2.20;100.00;100740.31;5024244;28;20045;-71
2021/12/03 10:35:05;;;;;;;21.67;6.90;;;;;;;2.41;100.00;100710.47;5009087;28;20053;-77
2021/12/03 10:43:32;;;;;;;19.90;6.78;;;;;;;2.52;100.00;100690.28;5002938;28;20057;-72
2021/12/03 10:46:42;;;;;;;18.02;6.55;;;;;;;2.57;100.00;100698.13;5027955;28;20140;-71
2021/12/03 10:49:47;;;;;;;18.00;7.45;;;;;;;2.63;100.00;100692.88;5027878;28;20053;-72
2021/12/03 10:53:12;;;;;;;16.30;4.50;;;;;;;2.65;100.00;100692.88;5023407;28;20053;-71
2021/12/03 11:08:15;;;;;;;19.05;6.13;;;;;;;2.91;100.00;100664.69;4938637;28;20446;-75
2021/12/03 11:11:22;;;;;;;12.48;4.65;;;;;;;2.96;100.00;100654.13;4982677;28;20054;-76
2021/12/03 11:14:36;;;;;;;14.30;4.75;;;;;;;2.96;100.00;100654.13;4986763;28;20046;-76
2021/12/03 11:17:21;;;;;;;12.80;4.82;;;;;;;2.93;100.00;100648.88;4967908;28;20985;-75
2021/12/03 11:39:56;;;;;;;13.57;6.88;;;;;;;2.75;100.00;100587.44;5026776;28;20387;-74
2021/12/03 12:41:58;;;;;;;14.00;5.60;;;;;;;3.44;100.00;100512.34;5085205;28;20661;-74
2021/12/03 14:55:52;;;;;;;10.63;5.70;;;;;;;3.30;100.00;100414.88;4958600;28;20130;-76
2021/12/03 14:58:22;;;;;;;8.18;5.13;;;;;;;3.30;100.00;100417.50;4969896;28;20082;-76
2021/12/03 15:00:56;;;;;;;9.13;5.97;;;;;;;3.30;100.00;100406.06;4972530;28;20149;-76
2021/12/03 15:03:37;;;;;;;9.98;6.15;;;;;;;3.29;100.00;100409.63;4969192;28;20047;-75
2021/12/03 15:06:23;;;;;;;9.02;5.93;;;;;;;3.28;100.00;100397.31;4971141;28;20104;-76
2021/12/03 15:08:54;;;;;;;8.00;4.95;;;;;;;3.29;100.00;100386.75;4968989;28;20062;-74
2021/12/03 15:25:51;;;;;;;9.93;7.15;;;;;;;3.37;100.00;100394.56;5016184;28;20049;-72
2021/12/03 15:31:45;;;;;;;10.35;6.85;;;;;;;3.41;100.00;100379.63;5064359;28;20048;-74
2021/12/03 15:34:29;;;;;;;9.68;6.25;;;;;;;3.37;100.00;100391.94;5066190;28;20408;-72
2021/12/03 15:37:11;;;;;;;11.50;8.00;;;;;;;3.39;100.00;100378.72;5065660;28;20145;-72
2021/12/03 15:39:55;;;;;;;11.18;7.07;;;;;;;3.42;100.00;100376.06;5068209;28;20234;-71
2021/12/03 16:04:43;;;;;;;16.30;10.57;;;;;;;3.55;100.00;100335.47;5065317;28;20055;-71
2021/12/03 16:07:23;;;;;;;15.25;9.63;;;;;;;3.55;100.00;100324.94;5067940;28;20048;-71
2021/12/03 16:12:53;;;;;;;15.60;10.00;;;;;;;3.57;100.00;100324.91;5057932;28;20045;-72
2021/12/03 16:24:19;;;;;;;24.75;14.93;;;;;;;3.54;100.00;100339.00;5038939;28;20063;-72
2021/12/03 16:43:55;;;;;;;23.75;14.27;;;;;;;3.53;100.00;100322.31;5067912;28;20545;-72
2021/12/03 16:51:56;;;;;;;27.15;15.20;;;;;;;3.54;100.00;100326.69;5070344;28;20060;-72
2021/12/03 16:54:48;;;;;;;29.95;15.63;;;;;;;3.52;100.00;100322.31;5063609;28;20524;-72
2021/12/03 16:57:18;;;;;;;24.67;13.98;;;;;;;3.54;100.00;100307.34;5069859;28;20052;-72
2021/12/03 16:59:48;;;;;;;24.05;14.45;;;;;;;3.51;100.00;100307.41;5064519;28;20062;-77
2021/12/03 17:02:20;;;;;;;30.80;16.90;;;;;;;3.49;100.00;100295.97;5067526;28;20147;-76
2021/12/03 17:05:02;;;;;;;33.10;17.98;;;;;;;3.48;100.00;100289.81;5066773;28;20135;-77
2021/12/03 17:45:05;;;;;;;31.25;15.30;;;;;;;3.50;100.00;100266.94;5067967;28;20047;-71
2021/12/03 17:47:44;;;;;;;38.40;17.83;;;;;;;3.49;100.00;100266.94;5070514;28;20048;-73
2021/12/03 17:50:26;;;;;;;35.17;16.85;;;;;;;3.50;100.00;100266.94;5065419;28;20160;-71
2021/12/03 17:58:24;;;;;;;39.03;16.92;;;;;;;3.50;100.00;100268.72;5066286;28;20055;-71
2021/12/03 18:00:59;;;;;;;34.55;16.85;;;;;;;3.49;100.00;100257.28;5065758;28;20508;-72
2021/12/03 18:03:34;;;;;;;34.53;15.95;;;;;;;3.48;100.00;100257.31;5066621;28;20642;-71
2021/12/03 18:08:51;;;;;;;33.60;13.57;;;;;;;3.53;100.00;100244.94;5044238;28;20056;-70
2021/12/03 18:11:50;;;;;;;26.80;13.00;;;;;;;3.54;100.00;100247.56;5067569;28;20048;-70
2021/12/03 18:45:20;;;;;;;34.53;16.00;;;;;;;3.46;100.00;100251.19;5063824;28;20063;-73
2021/12/03 18:48:12;;;;;;;30.23;15.10;;;;;;;3.48;100.00;100260.81;5070430;28;20072;-69